Time;durP1;ratioP1;P1;durP2;ratioP2;P2;SDS_P1;SDS_P2;PMS_P1;PMS_P2;Temp;Humidity;BMP_temperature;BMP_pressure;BME280_temperature;BME280_humidity;BME280_pressure;Samples;Min_cycle;Max_cycle;Signal;HPM_P1;HPM_P2
2023/03/09 00:00:54;;;;;;;;;1.00;1.00;;;;;11.23;74.23;99024.66;5039791;28;45220;-73
2023/03/09 00:03:20;;;;;;;;;2.67;1.00;;;;;11.10;74.70;99005.91;5039805;28;45248;-73
2023/03/09 00:05:54;;;;;;;;;1.67;0.00;;;;;11.52;74.25;99095.53;5040029;28;45487;-73
2023/03/09 00:08:19;;;;;;;;;3.00;2.00;;;;;11.43;74.51;99078.06;5020307;28;47726;-74
2023/03/09 00:10:45;;;;;;;;;2.00;1.00;;;;;11.32;74.68;99074.03;5038048;28;46026;-73
2023/03/09 00:13:10;;;;;;;;;2.00;1.00;;;;;10.59;74.71;98945.66;5039750;28;45475;-73
2023/03/09 00:15:35;;;;;;;;;1.33;0.67;;;;;11.23;74.11;99081.34;5039844;28;46116;-73
2023/03/09 00:18:01;;;;;;;;;1.00;1.00;;;;;11.47;74.17;99117.41;5039451;28;46117;-72
2023/03/09 00:20:26;;;;;;;;;0.33;0.33;;;;;11.34;74.07;99093.31;5039332;28;45297;-72
2023/03/09 00:22:53;;;;;;;;;3.67;2.00;;;;;11.15;73.78;99077.97;5039548;28;45371;-75
2023/03/09 00:25:21;;;;;;;;;1.67;1.00;;;;;11.42;73.77;99118.97;5039601;28;45531;-74
2023/03/09 00:27:51;;;;;;;;;1.67;1.00;;;;;11.41;73.75;99123.47;5039048;28;46671;-73
2023/03/09 00:30:18;;;;;;;;;0.00;0.00;;;;;11.40;73.75;99136.94;5039528;28;45380;-73
2023/03/09 00:32:44;;;;;;;;;1.00;1.00;;;;;11.29;74.05;99124.97;5038248;28;45303;-73
2023/03/09 00:35:10;;;;;;;;;0.67;0.67;;;;;11.34;73.91;99145.69;5039320;28;45566;-73
2023/03/09 00:37:39;;;;;;;;;1.00;1.00;;;;;11.01;73.97;99094.75;5037656;28;47818;-72
2023/03/09 00:40:07;;;;;;;;;2.00;1.00;;;;;11.20;73.67;99140.22;5039275;28;45313;-74
2023/03/09 00:42:33;;;;;;;;;1.33;1.33;;;;;10.94;73.47;99110.66;5038025;28;45309;-73
2023/03/09 00:44:59;;;;;;;;;1.33;1.00;;;;;10.74;73.61;99090.97;5036570;28;45685;-73
2023/03/09 00:47:25;;;;;;;;;0.67;0.67;;;;;10.75;73.74;99087.31;5035821;28;48244;-73
2023/03/09 00:49:50;;;;;;;;;1.00;1.00;;;;;11.04;73.52;99147.59;5037839;28;46968;-73
2023/03/09 00:52:16;;;;;;;;;0.00;0.00;;;;;10.66;74.02;99090.06;5054786;28;45353;-73
2023/03/09 00:54:41;;;;;;;;;1.00;1.00;;;;;10.96;73.33;99154.66;5056603;28;45670;-74
2023/03/09 00:57:06;;;;;;;;;2.00;2.00;;;;;10.76;73.79;99115.53;5056501;28;45486;-72
2023/03/09 00:59:32;;;;;;;;;3.33;1.00;;;;;10.96;73.54;99161.81;5051426;28;45396;-73
2023/03/09 01:01:58;;;;;;;;;0.33;0.33;;;;;10.97;74.14;99168.78;5037625;28;45284;-71
2023/03/09 01:04:23;;;;;;;;;1.67;1.67;;;;;10.64;74.09;99137.28;5036184;28;45628;-72
2023/03/09 01:06:48;;;;;;;;;2.00;1.00;;;;;10.89;74.58;99190.16;5034718;28;46368;-73
2023/03/09 01:09:14;;;;;;;;;2.00;1.00;;;;;10.88;73.93;99173.38;5044290;28;45354;-73
2023/03/09 01:11:39;;;;;;;;;1.33;0.00;;;;;10.87;74.22;99179.72;5048245;28;53004;-73
2023/03/09 01:14:05;;;;;;;;;4.00;1.00;;;;;10.82;74.62;99178.63;5056827;28;45578;-73
2023/03/09 01:16:30;;;;;;;;;0.67;0.67;;;;;10.76;74.17;99201.41;5056638;28;45607;-72
2023/03/09 01:18:55;;;;;;;;;0.00;0.00;;;;;10.84;74.65;99204.00;5040272;28;45410;-72
2023/03/09 01:21:21;;;;;;;;;3.00;1.67;;;;;10.62;74.55;99168.53;5036979;28;45976;-73
2023/03/09 01:23:46;;;;;;;;;3.00;1.00;;;;;10.83;74.23;99190.91;5036525;28;45551;-72
2023/03/09 01:26:12;;;;;;;;;2.67;1.00;;;;;10.53;74.25;99158.97;5037547;28;46077;-74
2023/03/09 01:28:38;;;;;;;;;3.00;1.00;;;;;9.69;74.49;99022.06;5042260;28;45274;-73
2023/03/09 01:31:08;;;;;;;;;2.00;1.00;;;;;10.70;74.81;99190.69;5036095;28;45376;-73
2023/03/09 01:33:34;;;;;;;;;2.67;1.00;;;;;10.78;74.28;99214.53;5035805;28;45528;-73
2023/03/09 01:36:02;;;;;;;;;3.00;1.00;;;;;10.32;74.64;99142.94;5043466;28;45471;-72
2023/03/09 01:38:28;;;;;;;;;0.33;0.33;;;;;10.62;74.61;99195.09;5040111;28;45698;-73
2023/03/09 01:40:53;;;;;;;;;3.00;1.00;;;;;10.45;74.69;99190.97;5036264;28;45401;-71
2023/03/09 01:43:28;;;;;;;;;3.67;2.67;;;;;10.52;74.67;99199.84;5035863;28;45412;-72
2023/03/09 01:46:22;;;;;;;;;3.00;3.00;;;;;10.73;74.15;99239.00;5047945;28;46531;-71
2023/03/09 01:48:52;;;;;;;;;2.00;1.00;;;;;10.74;74.40;99239.81;5054836;28;45371;-72
2023/03/09 01:51:23;;;;;;;;;1.33;0.67;;;;;10.59;74.05;99227.34;5056145;28;45524;-72
2023/03/09 01:53:51;;;;;;;;;2.00;2.00;;;;;10.32;73.93;99156.22;5056370;28;45399;-72
2023/03/09 01:56:20;;;;;;;;;4.33;1.33;;;;;10.81;73.79;99246.06;5055662;28;46813;-73
2023/03/09 01:58:47;;;;;;;;;3.00;1.00;;;;;10.76;73.81;99246.59;5055725;28;45521;-73
2023/03/09 02:01:12;;;;;;;;;0.00;0.00;;;;;10.49;73.57;99207.34;5055488;28;45381;-71
2023/03/09 02:03:42;;;;;;;;;1.67;1.67;;;;;10.76;73.88;99243.13;5050846;28;45552;-73
2023/03/09 02:06:14;;;;;;;;;4.00;1.33;;;;;10.80;74.49;99271.00;5055561;28;45493;-73
2023/03/09 02:08:49;;;;;;;;;1.00;1.00;;;;;9.69;74.53;99097.19;5055332;28;45439;-72
2023/03/09 02:11:14;;;;;;;;;3.00;1.00;;;;;10.85;74.86;99252.69;5054304;28;45513;-72
2023/03/09 02:13:46;;;;;;;;;3.00;1.67;;;;;10.46;74.71;99207.72;5043738;28;45608;-72
2023/03/09 02:16:11;;;;;;;;;2.00;2.00;;;;;10.83;74.63;99255.53;5054408;28;46498;-73
2023/03/09 02:18:38;;;;;;;;;4.00;1.00;;;;;10.88;74.64;99262.94;5055292;28;45363;-73
2023/03/09 02:21:28;;;;;;;;;3.00;0.67;;;;;10.42;74.46;99185.19;5054209;28;45406;-73
2023/03/09 02:24:03;;;;;;;;;1.00;0.00;;;;;10.93;74.38;99284.50;5048002;28;45556;-71
2023/03/09 02:26:47;;;;;;;;;3.67;1.00;;;;;10.96;75.20;99265.50;5053608;28;47733;-71
2023/03/09 02:29:13;;;;;;;;;0.67;0.67;;;;;10.99;74.95;99275.78;5053490;28;45582;-72
2023/03/09 02:31:39;;;;;;;;;1.33;1.00;;;;;10.98;74.89;99274.13;5042849;28;45265;-72
2023/03/09 02:34:04;;;;;;;;;1.00;1.00;;;;;10.73;74.63;99232.84;5035685;28;45332;-72
2023/03/09 02:36:29;;;;;;;;;2.33;2.33;;;;;10.72;75.05;99231.22;5035089;28;45688;-71
2023/03/09 02:39:05;;;;;;;;;1.50;1.50;;;;;10.78;75.02;99263.19;5035636;28;45357;-71
2023/03/09 02:41:31;;;;;;;;;3.00;2.00;;;;;10.77;74.74;99239.47;5035474;28;45530;-73
2023/03/09 02:43:57;;;;;;;;;2.00;2.00;;;;;11.02;74.97;99283.41;5036298;28;45525;-72
2023/03/09 02:46:23;;;;;;;;;2.67;1.67;;;;;10.58;74.87;99225.69;5033647;28;47783;-72
2023/03/09 02:48:49;;;;;;;;;3.00;2.00;;;;;10.24;75.24;99153.66;5041789;28;45418;-72
2023/03/09 02:51:15;;;;;;;;;4.00;4.00;;;;;10.34;74.79;99162.16;5051044;28;45603;-71
2023/03/09 02:53:40;;;;;;;;;2.00;2.00;;;;;11.11;74.27;99294.78;5055137;28;45426;-71
2023/03/09 02:56:06;;;;;;;;;1.00;1.00;;;;;10.42;74.57;99172.72;5052230;28;46623;-71
2023/03/09 02:58:32;;;;;;;;;4.00;1.00;;;;;10.90;74.10;99242.31;5042804;28;45469;-72
2023/03/09 03:00:57;;;;;;;;;4.67;3.00;;;;;10.33;73.89;99155.19;5033596;28;45432;-73
2023/03/09 03:03:22;;;;;;;;;5.33;2.00;;;;;11.14;74.26;99289.91;5034756;28;45542;-72
2023/03/09 03:05:48;;;;;;;;;6.33;3.67;;;;;11.19;74.23;99307.97;5038561;28;45879;-72
2023/03/09 03:08:13;;;;;;;;;1.00;1.00;;;;;10.77;74.13;99240.28;5051058;28;45566;-71
2023/03/09 03:10:39;;;;;;;;;3.67;1.00;;;;;11.12;74.53;99291.94;5053439;28;45417;-72
2023/03/09 03:13:04;;;;;;;;;2.00;1.00;;;;;10.96;74.03;99268.16;5054797;28;45572;-72
2023/03/09 03:15:29;;;;;;;;;5.00;3.00;;;;;11.09;74.16;99284.31;5041902;28;47018;-72
2023/03/09 03:17:55;;;;;;;;;4.33;4.00;;;;;10.98;73.95;99282.09;5035509;28;45407;-72
2023/03/09 03:20:20;;;;;;;;;5.33;1.00;;;;;11.36;73.93;99329.91;5034732;28;45607;-72
2023/03/09 03:22:46;;;;;;;;;3.00;1.00;;;;;11.38;74.34;99343.88;5035015;28;45575;-71
2023/03/09 03:25:12;;;;;;;;;2.00;1.33;;;;;11.11;73.63;99290.28;5037740;28;46555;-72
2023/03/09 03:27:37;;;;;;;;;2.00;2.00;;;;;11.37;73.77;99334.22;5035364;28;45396;-73
2023/03/09 03:30:03;;;;;;;;;6.33;3.00;;;;;11.35;74.07;99328.28;5034587;28;45297;-73
2023/03/09 03:32:29;;;;;;;;;2.33;2.00;;;;;10.81;74.48;99251.38;5038906;28;45681;-73
2023/03/09 03:34:55;;;;;;;;;3.00;1.00;;;;;11.14;74.37;99324.50;5046160;28;45802;-71
2023/03/09 03:37:20;;;;;;;;;3.00;3.00;;;;;11.32;74.50;99328.63;5054596;28;45432;-72
2023/03/09 03:39:45;;;;;;;;;2.00;1.33;;;;;11.00;74.64;99288.06;5055106;28;45398;-72
2023/03/09 03:42:11;;;;;;;;;3.33;2.33;;;;;11.46;74.38;99375.72;5047387;28;45423;-71
2023/03/09 03:44:36;;;;;;;;;1.00;1.00;;;;;11.48;74.46;99347.91;5045908;28;47485;-71
2023/03/09 03:47:01;;;;;;;;;4.00;2.00;;;;;11.04;74.97;99281.41;5053986;28;48827;-72
2023/03/09 03:49:27;;;;;;;;;4.33;1.67;;;;;11.43;74.95;99346.81;5052838;28;45675;-72
2023/03/09 03:51:53;;;;;;;;;3.00;2.25;;;;;11.41;75.70;99349.66;5056770;28;45320;-72
2023/03/09 03:54:18;;;;;;;;;3.67;1.33;;;;;10.97;75.66;99304.38;5053564;28;47304;-72
2023/03/09 03:56:43;;;;;;;;;1.00;1.00;;;;;10.66;75.63;99244.22;5055889;28;55263;-72
2023/03/09 03:59:08;;;;;;;;;2.67;2.00;;;;;11.37;76.21;99374.97;5056515;28;45347;-71
2023/03/09 04:01:34;;;;;;;;;10.00;4.00;;;;;10.97;76.06;99304.38;5055281;28;45568;-72
2023/03/09 04:03:59;;;;;;;;;1.67;1.00;;;;;11.31;75.95;99353.59;5054843;28;47413;-72
2023/03/09 04:06:24;;;;;;;;;3.00;2.00;;;;;11.38;76.48;99365.16;5056320;28;45307;-72
2023/03/09 04:08:50;;;;;;;;;7.00;3.00;;;;;11.40;76.14;99385.25;5058613;28;45260;-73
2023/03/09 04:11:15;;;;;;;;;6.00;3.00;;;;;11.37;75.70;99390.09;5060119;28;45349;-72
2023/03/09 04:13:41;;;;;;;;;4.67;2.33;;;;;11.39;76.12;99388.09;5058042;28;47546;-72
2023/03/09 04:16:07;;;;;;;;;4.00;3.00;;;;;11.27;76.10;99369.09;5059629;28;45224;-73
2023/03/09 04:18:32;;;;;;;;;2.33;2.33;;;;;11.43;75.40;99381.41;5060112;28;45255;-71
2023/03/09 04:20:57;;;;;;;;;3.33;3.00;;;;;11.48;75.38;99395.00;5060402;28;45583;-71
2023/03/09 04:23:24;;;;;;;;;5.33;2.33;;;;;11.51;75.02;99397.28;5058686;28;46397;-71
2023/03/09 04:25:57;;;;;;;;;4.67;3.00;;;;;11.45;75.01;99379.41;5059396;28;45493;-71
2023/03/09 04:28:23;;;;;;;;;3.00;2.00;;;;;11.41;75.21;99380.75;5058117;28;45479;-72
2023/03/09 04:30:48;;;;;;;;;2.00;1.00;;;;;11.24;75.17;99361.50;5059480;28;45668;-71
2023/03/09 04:33:13;;;;;;;;;9.00;4.67;;;;;11.52;74.99;99394.44;5057922;28;47360;-72
2023/03/09 04:35:39;;;;;;;;;6.33;2.33;;;;;11.53;75.09;99403.25;5059392;28;45552;-71
2023/03/09 04:38:04;;;;;;;;;4.67;3.00;;;;;11.28;75.14;99366.25;5059266;28;45402;-72
2023/03/09 04:40:30;;;;;;;;;4.00;1.33;;;;;11.48;75.80;99401.16;5059496;28;45261;-74
2023/03/09 04:42:55;;;;;;;;;3.67;3.00;;;;;11.48;75.04;99397.66;5059002;28;45432;-73
2023/03/09 04:45:21;;;;;;;;;2.67;2.67;;;;;11.58;75.44;99404.34;5057437;28;45580;-73
2023/03/09 04:47:46;;;;;;;;;3.67;2.33;;;;;11.61;74.92;99424.44;5057764;28;45642;-72
2023/03/09 04:50:12;;;;;;;;;3.33;1.67;;;;;10.79;75.02;99295.91;5058048;28;45363;-71
2023/03/09 04:52:37;;;;;;;;;6.67;4.33;;;;;11.45;75.33;99387.38;5058804;28;46166;-72
2023/03/09 04:55:03;;;;;;;;;5.67;3.00;;;;;11.60;75.06;99430.78;5058647;28;45595;-72
2023/03/09 04:57:28;;;;;;;;;6.33;3.00;;;;;11.25;75.15;99366.63;5058916;28;45452;-72
2023/03/09 04:59:54;;;;;;;;;5.67;2.00;;;;;11.61;75.07;99428.94;5059206;28;45503;-71
2023/03/09 05:02:20;;;;;;;;;6.67;4.00;;;;;11.63;75.85;99429.63;5058508;28;45826;-72
2023/03/09 05:04:45;;;;;;;;;3.00;3.00;;;;;11.55;75.45;99431.34;5058722;28;45513;-72
2023/03/09 05:07:11;;;;;;;;;7.67;3.00;;;;;11.39;75.76;99383.59;5057369;28;45285;-71
2023/03/09 05:09:36;;;;;;;;;6.67;4.00;;;;;10.88;76.03;99316.94;5059139;28;45276;-72
2023/03/09 05:12:01;;;;;;;;;7.00;3.00;;;;;11.24;76.33;99407.53;5057989;28;59283;-73
2023/03/09 05:14:29;;;;;;;;;9.00;4.67;;;;;11.46;76.03;99440.41;5058428;28;45349;-73
2023/03/09 05:16:54;;;;;;;;;4.67;3.67;;;;;11.25;76.12;99395.88;5058813;28;45410;-72
2023/03/09 05:19:20;;;;;;;;;5.00;3.00;;;;;11.21;76.17;99388.44;5058265;28;45472;-72
2023/03/09 05:21:46;;;;;;;;;2.00;2.00;;;;;11.36;75.89;99417.72;5058351;28;46740;-73
2023/03/09 05:24:12;;;;;;;;;4.33;3.00;;;;;11.54;75.77;99444.81;5058228;28;45619;-72
2023/03/09 05:26:37;;;;;;;;;4.00;3.00;;;;;11.24;76.05;99407.53;5058201;28;45432;-72
2023/03/09 05:29:03;;;;;;;;;5.33;3.67;;;;;11.57;76.06;99474.56;5057412;28;45461;-72
2023/03/09 05:31:28;;;;;;;;;8.00;1.67;;;;;9.52;76.08;99139.91;5058131;28;46037;-72
2023/03/09 05:33:54;;;;;;;;;4.33;3.00;;;;;11.56;76.23;99450.78;5056836;28;45426;-73
2023/03/09 05:36:23;;;;;;;;;4.67;3.67;;;;;11.57;76.23;99449.78;5057080;28;45542;-74
2023/03/09 05:38:49;;;;;;;;;4.33;2.67;;;;;11.56;75.98;99454.28;5057090;28;45397;-74
2023/03/09 05:41:16;;;;;;;;;4.33;3.00;;;;;11.58;76.36;99456.75;5056752;28;47517;-73
2023/03/09 05:43:42;;;;;;;;;2.00;2.00;;;;;11.58;76.56;99451.44;5057839;28;45362;-72
2023/03/09 05:46:09;;;;;;;;;6.33;3.67;;;;;11.61;76.18;99452.91;5056594;28;45427;-73
2023/03/09 05:48:35;;;;;;;;;3.00;2.33;;;;;11.57;76.56;99465.75;5091117;27;45251;-71
2023/03/09 05:51:01;;;;;;;;;3.67;1.67;;;;;11.57;76.70;99492.38;5058121;28;45844;-71
2023/03/09 05:53:27;;;;;;;;;3.33;1.67;;;;;10.99;76.71;99371.50;5056852;28;46492;-74
2023/03/09 05:55:52;;;;;;;;;6.33;3.33;;;;;11.01;76.72;99382.78;5056605;28;45276;-72
2023/03/09 05:58:18;;;;;;;;;3.33;2.00;;;;;10.93;76.90;99356.28;5058241;28;45482;-72
2023/03/09 06:00:44;;;;;;;;;4.00;3.00;;;;;11.20;76.59;99416.88;5058309;28;46795;-73
2023/03/09 06:03:12;;;;;;;;;7.67;2.00;;;;;11.20;76.63;99413.38;5058359;28;45320;-73
2023/03/09 06:05:37;;;;;;;;;4.67;2.00;;;;;11.02;77.05;99389.78;5057877;28;45359;-72
2023/03/09 06:08:03;;;;;;;;;2.33;1.33;;;;;11.53;76.74;99475.94;5058047;28;45552;-72
2023/03/09 06:10:28;;;;;;;;;4.00;3.00;;;;;11.25;76.98;99432.31;5057799;28;46619;-72
2023/03/09 06:12:54;;;;;;;;;5.33;4.00;;;;;11.43;77.09;99459.41;5056388;28;45399;-73
2023/03/09 06:15:19;;;;;;;;;6.33;4.00;;;;;10.82;77.17;99357.56;5057659;28;45520;-73
2023/03/09 06:17:44;;;;;;;;;2.33;2.33;;;;;11.52;76.93;99476.94;5057673;28;45228;-72
2023/03/09 06:20:10;;;;;;;;;2.00;2.00;;;;;11.32;77.50;99446.53;5056350;28;47626;-71
2023/03/09 06:22:35;;;;;;;;;1.67;1.67;;;;;11.27;77.51;99455.06;5057228;28;45233;-72
2023/03/09 06:25:01;;;;;;;;;3.00;3.00;;;;;10.51;77.65;99331.06;5056790;28;45502;-75
2023/03/09 06:27:26;;;;;;;;;5.00;3.00;;;;;10.76;77.70;99366.22;5057758;28;45284;-73
2023/03/09 06:29:53;;;;;;;;;4.00;3.00;;;;;11.53;77.41;99501.72;5057196;28;45420;-73
2023/03/09 06:32:19;;;;;;;;;3.67;3.67;;;;;10.75;77.56;99367.25;5055692;28;46472;-73
2023/03/09 06:34:45;;;;;;;;;3.00;3.00;;;;;11.54;77.33;99492.75;5057498;28;45393;-73
2023/03/09 06:37:10;;;;;;;;;0.67;0.67;;;;;11.63;77.51;99498.81;5057663;28;45435;-72
2023/03/09 06:39:35;;;;;;;;;3.33;1.00;;;;;11.68;76.87;99513.25;5056664;28;48835;-73
2023/03/09 06:42:01;;;;;;;;;4.33;2.67;;;;;11.60;76.86;99505.31;5044095;28;45873;-72
2023/03/09 06:44:26;;;;;;;;;5.00;2.00;;;;;11.69;77.04;99517.56;5036631;28;45471;-71
2023/03/09 06:46:51;;;;;;;;;7.00;4.67;;;;;11.47;76.82;99475.84;5034433;28;45312;-73
2023/03/09 06:49:17;;;;;;;;;3.00;2.67;;;;;11.02;76.51;99408.41;5036750;28;45575;-72
2023/03/09 06:51:42;;;;;;;;;3.67;2.33;;;;;11.51;76.39;99469.16;5027863;28;45336;-72
2023/03/09 06:54:07;;;;;;;;;3.33;3.33;;;;;11.87;76.59;99523.41;5015438;28;45419;-72
2023/03/09 06:56:33;;;;;;;;;3.33;3.00;;;;;11.97;75.84;99523.13;5025541;28;45306;-71
2023/03/09 06:58:58;;;;;;;;;4.33;3.00;;;;;12.01;75.84;99521.75;5017205;28;46187;-71
2023/03/09 07:01:24;;;;;;;;;3.00;3.00;;;;;11.77;75.72;99482.84;5022359;28;45463;-72
2023/03/09 07:03:49;;;;;;;;;9.00;7.00;;;;;12.14;75.24;99529.09;5036409;28;45301;-72
2023/03/09 07:06:14;;;;;;;;;2.33;1.33;;;;;12.04;75.30;99509.91;5036407;28;45535;-72
2023/03/09 07:08:40;;;;;;;;;5.33;3.00;;;;;12.17;74.88;99536.72;5036286;28;46717;-72
2023/03/09 07:11:05;;;;;;;;;6.00;4.00;;;;;11.45;74.91;99424.63;5036448;28;45342;-73
2023/03/09 07:13:32;;;;;;;;;7.00;4.50;;;;;12.30;74.60;99552.91;5035107;28;45347;-72
2023/03/09 07:15:57;;;;;;;;;7.33;5.00;;;;;12.17;74.34;99542.88;5032310;28;45412;-73
2023/03/09 07:18:23;;;;;;;;;7.33;5.33;;;;;12.01;74.50;99510.25;5017402;28;45305;-72
2023/03/09 07:20:48;;;;;;;;;4.33;4.00;;;;;12.32;74.28;99577.53;5016981;28;45278;-73
2023/03/09 07:23:13;;;;;;;;;7.33;5.67;;;;;12.34;74.83;99574.69;5026241;28;59304;-75
2023/03/09 07:25:39;;;;;;;;;4.33;4.33;;;;;11.84;74.68;99505.13;5056897;28;45656;-72
2023/03/09 07:28:06;;;;;;;;;7.33;4.00;;;;;11.90;74.71;99514.22;5040512;28;45480;-72
2023/03/09 07:30:33;;;;;;;;;6.33;3.67;;;;;12.23;74.24;99559.16;5046011;28;45249;-71
2023/03/09 07:32:59;;;;;;;;;6.00;4.33;;;;;10.87;74.63;99331.25;5055367;28;45546;-72
2023/03/09 07:35:26;;;;;;;;;6.33;6.00;;;;;11.88;74.79;99500.25;5045531;28;45223;-73
2023/03/09 07:37:51;;;;;;;;;6.00;3.00;;;;;12.09;74.43;99529.66;5036655;28;45844;-72
2023/03/09 07:40:18;;;;;;;;;8.33;6.33;;;;;12.36;74.51;99586.81;5036029;28;45424;-73
2023/03/09 07:42:43;;;;;;;;;6.67;3.00;;;;;12.19;74.44;99546.19;5038463;28;45236;-72
2023/03/09 07:45:09;;;;;;;;;9.00;6.33;;;;;12.12;74.16;99534.63;5038330;28;45536;-74
2023/03/09 07:47:35;;;;;;;;;6.67;5.00;;;;;12.19;73.45;99529.38;5039054;28;47308;-73
2023/03/09 07:50:01;;;;;;;;;8.67;6.33;;;;;12.58;73.72;99597.56;5039732;28;45341;-73
2023/03/09 07:52:30;;;;;;;;;4.67;4.00;;;;;11.55;73.11;99422.53;5038399;28;45411;-73
2023/03/09 07:54:58;;;;;;;;;5.00;4.67;;;;;12.47;73.27;99567.69;5040431;28;45517;-73
2023/03/09 07:57:24;;;;;;;;;5.67;5.67;;;;;12.57;72.74;99563.91;5040012;28;45755;-72
2023/03/09 07:59:54;;;;;;;;;9.00;4.67;;;;;12.87;72.03;99607.38;5038486;28;46877;-75
2023/03/09 08:02:20;;;;;;;;;7.00;5.67;;;;;12.28;71.74;99487.47;5039772;28;45478;-72
2023/03/09 08:04:45;;;;;;;;;7.33;5.67;;;;;13.02;71.13;99590.34;5033915;28;45412;-71
2023/03/09 08:07:10;;;;;;;;;4.00;4.00;;;;;12.52;70.64;99489.00;5039201;28;46109;-71
2023/03/09 08:09:37;;;;;;;;;9.00;7.00;;;;;13.38;70.58;99584.16;5038023;28;45434;-73
2023/03/09 08:12:03;;;;;;;;;9.00;4.00;;;;;13.65;69.96;99591.44;5037575;28;45551;-73
2023/03/09 08:14:28;;;;;;;;;5.67;3.00;;;;;13.11;68.91;99470.97;5039608;28;45305;-73
2023/03/09 08:16:54;;;;;;;;;11.67;6.67;;;;;14.03;68.02;99604.47;5038905;28;45651;-73
2023/03/09 08:19:21;;;;;;;;;10.00;4.33;;;;;14.04;67.09;99582.06;5039014;28;45502;-73
2023/03/09 08:21:47;;;;;;;;;8.00;3.67;;;;;14.17;67.38;99592.84;5050740;28;45422;-74
2023/03/09 08:24:12;;;;;;;;;7.33;6.00;;;;;13.98;67.05;99580.16;5039340;28;45357;-72
2023/03/09 08:26:37;;;;;;;;;4.00;4.00;;;;;14.14;66.90;99606.59;5038883;28;47876;-73
2023/03/09 08:29:03;;;;;;;;;7.33;7.33;;;;;13.98;67.45;99589.00;5037351;28;45456;-73
2023/03/09 08:31:28;;;;;;;;;8.00;3.33;;;;;14.21;67.17;99614.66;5038956;28;45598;-73
2023/03/09 08:33:54;;;;;;;;;5.67;3.67;;;;;14.13;66.90;99596.94;5038623;28;45289;-72
2023/03/09 08:36:20;;;;;;;;;6.33;5.67;;;;;14.10;66.74;99593.81;5038209;28;45800;-73
2023/03/09 08:38:47;;;;;;;;;10.67;5.00;;;;;14.09;67.19;99614.38;5033955;28;46133;-74
2023/03/09 08:41:13;;;;;;;;;9.00;5.00;;;;;14.09;67.05;99614.38;5023437;28;45499;-72
2023/03/09 08:43:38;;;;;;;;;4.33;3.00;;;;;14.12;67.30;99611.31;5037384;28;45389;-74
2023/03/09 08:46:05;;;;;;;;;6.67;4.00;;;;;14.14;67.27;99617.28;5038476;28;46263;-74
2023/03/09 08:48:30;;;;;;;;;8.33;4.00;;;;;14.29;67.23;99604.66;5038370;28;45432;-72
2023/03/09 08:50:59;;;;;;;;;9.33;6.67;;;;;14.25;66.93;99603.41;5038860;28;45468;-73
2023/03/09 08:53:25;;;;;;;;;5.67;3.67;;;;;14.17;66.87;99597.38;5039093;28;45541;-74
2023/03/09 08:55:51;;;;;;;;;6.00;5.67;;;;;14.31;66.72;99581.22;5036847;28;48697;-74
2023/03/09 08:58:16;;;;;;;;;8.00;3.67;;;;;14.58;66.28;99613.50;5037002;28;45429;-74
2023/03/09 09:00:42;;;;;;;;;7.33;5.00;;;;;14.73;65.20;99614.19;5031353;28;45525;-74
2023/03/09 09:03:07;;;;;;;;;8.00;8.00;;;;;14.74;65.16;99613.16;5029959;28;45522;-74
2023/03/09 09:05:33;;;;;;;;;9.00;5.00;;;;;14.31;65.35;99565.19;5042259;28;45379;-73
2023/03/09 09:07:59;;;;;;;;;8.33;4.33;;;;;14.60;65.79;99616.78;5038758;28;45296;-74
2023/03/09 09:10:25;;;;;;;;;7.33;4.67;;;;;14.58;65.58;99624.19;5037324;28;45515;-75
2023/03/09 09:12:50;;;;;;;;;8.00;8.00;;;;;14.61;65.83;99602.38;5052534;28;45372;-75
2023/03/09 09:15:16;;;;;;;;;4.67;4.33;;;;;14.63;64.97;99595.03;5058349;28;65292;-72
2023/03/09 09:17:42;;;;;;;;;6.33;4.00;;;;;14.62;64.44;99598.72;5061718;28;45266;-72
2023/03/09 09:20:08;;;;;;;;;6.00;4.67;;;;;14.38;64.52;99548.34;5061143;28;45501;-74
2023/03/09 09:22:34;;;;;;;;;5.67;5.00;;;;;14.37;64.82;99554.72;5037494;28;45564;-74
2023/03/09 09:25:00;;;;;;;;;7.33;5.00;;;;;14.57;64.62;99590.44;5038443;28;46185;-75
2023/03/09 09:27:26;;;;;;;;;8.67;6.00;;;;;14.50;64.63;99563.66;5044631;28;45554;-73
2023/03/09 09:29:56;;;;;;;;;9.33;4.67;;;;;14.89;64.81;99581.75;5038744;28;45532;-74
2023/03/09 09:32:21;;;;;;;;;13.33;7.00;;;;;14.82;62.84;99492.63;5039374;28;45621;-74
2023/03/09 09:34:47;;;;;;;;;4.75;4.75;;;;;15.73;62.03;99597.41;5037637;28;45433;-74
2023/03/09 09:37:15;;;;;;;;;6.67;3.33;;;;;16.06;61.18;99593.91;5040781;28;45992;-74
2023/03/09 09:39:40;;;;;;;;;5.00;4.67;;;;;16.09;59.58;99535.34;5036367;28;45366;-74
2023/03/09 09:42:29;;;;;;;;;8.33;5.33;;;;;16.62;58.56;99602.28;5041072;28;45502;-74
2023/03/09 09:44:57;;;;;;;;;7.67;3.67;;;;;16.69;57.45;99587.00;5031232;28;47264;-75
2023/03/09 09:47:29;;;;;;;;;6.00;5.33;;;;;16.62;57.73;99582.66;5037850;28;45592;-73
2023/03/09 09:49:58;;;;;;;;;6.00;5.00;;;;;16.41;57.62;99520.16;5038230;28;45367;-74
2023/03/09 09:52:49;;;;;;;;;10.00;6.00;;;;;16.87;57.48;99588.19;5036538;28;45491;-80
2023/03/09 09:55:25;;;;;;;;;9.00;4.00;;;;;16.15;58.02;99476.53;5040900;28;45502;-74
2023/03/09 09:58:03;;;;;;;;;6.00;4.67;;;;;16.61;57.99;99573.75;5036961;28;45446;-74
2023/03/09 10:00:55;;;;;;;;;5.33;3.67;;;;;16.69;57.79;99586.19;5037794;28;45297;-75
2023/03/09 10:03:31;;;;;;;;;14.67;11.00;;;;;16.43;57.67;99587.06;5037060;28;45533;-74
2023/03/09 10:06:14;;;;;;;;;5.67;3.00;;;;;16.21;58.31;99572.22;5037703;28;46489;-74
2023/03/09 10:08:43;;;;;;;;;7.67;4.00;;;;;16.06;59.01;99592.06;5038156;28;45571;-75
2023/03/09 10:11:28;;;;;;;;;8.33;5.33;;;;;15.77;59.28;99546.91;5039715;28;46823;-74
2023/03/09 10:14:00;;;;;;;;;11.50;5.50;;;;;15.96;59.09;99588.97;5040122;28;45533;-74
2023/03/09 10:16:30;;;;;;;;;7.00;3.00;;;;;15.96;58.69;99588.13;5037045;28;45521;-74
2023/03/09 10:18:59;;;;;;;;;5.00;3.00;;;;;15.88;59.04;99575.78;5037421;28;45225;-73
2023/03/09 10:21:44;;;;;;;;;5.00;5.00;;;;;15.44;59.57;99539.66;5038511;28;45220;-74
2023/03/09 10:24:28;;;;;;;;;12.33;6.00;;;;;15.84;59.59;99596.00;5037871;28;45261;-74
2023/03/09 10:27:12;;;;;;;;;5.67;4.33;;;;;15.80;59.01;99592.88;5029249;28;45847;-73
2023/03/09 10:29:47;;;;;;;;;4.67;3.33;;;;;15.84;59.09;99603.19;5037484;28;45304;-72
2023/03/09 10:32:36;;;;;;;;;5.33;4.00;;;;;15.32;58.62;99485.06;5037598;28;45589;-73
2023/03/09 10:35:20;;;;;;;;;8.33;8.33;;;;;16.05;58.53;99581.53;5039661;28;46287;-74
2023/03/09 10:37:48;;;;;;;;;3.67;3.67;;;;;15.97;58.37;99577.19;5035876;28;49176;-78
2023/03/09 10:40:21;;;;;;;;;10.33;7.00;;;;;16.07;58.27;99582.97;5027731;28;45525;-75
2023/03/09 10:42:46;;;;;;;;;4.67;4.33;;;;;15.73;58.29;99524.25;5017553;28;45414;-74
2023/03/09 10:45:12;;;;;;;;;6.67;6.00;;;;;16.12;58.13;99585.84;5038436;28;45465;-75
2023/03/09 10:47:47;;;;;;;;;6.33;5.00;;;;;16.08;58.05;99581.94;5043753;28;47257;-75
2023/03/09 10:50:14;;;;;;;;;8.33;7.00;;;;;15.23;56.89;99456.03;5017210;28;46211;-75
2023/03/09 10:52:40;;;;;;;;;8.75;4.25;;;;;15.85;57.14;99562.78;5018019;28;45258;-74
2023/03/09 10:55:34;;;;;;;;;7.00;4.33;;;;;15.76;57.53;99554.13;5035522;28;45512;-76
2023/03/09 10:58:14;;;;;;;;;7.67;5.67;;;;;15.49;57.40;99499.69;5035456;28;48572;-76
2023/03/09 11:00:56;;;;;;;;;7.33;4.00;;;;;15.72;57.20;99544.84;5034860;28;46005;-74
2023/03/09 11:03:31;;;;;;;;;10.00;5.67;;;;;16.00;56.86;99568.75;5035616;28;45404;-75
2023/03/09 11:06:11;;;;;;;;;11.00;5.00;;;;;15.95;57.32;99555.13;5035529;28;45533;-75
2023/03/09 11:08:37;;;;;;;;;8.75;4.00;;;;;15.77;56.60;99491.44;5035574;28;46173;-76
2023/03/09 11:11:05;;;;;;;;;11.00;8.00;;;;;16.28;55.75;99563.16;5036548;28;45426;-74
2023/03/09 11:13:31;;;;;;;;;6.67;5.67;;;;;16.28;55.88;99562.31;5036851;28;45340;-74
2023/03/09 11:16:06;;;;;;;;;11.67;6.33;;;;;16.36;56.23;99575.50;5025431;28;45994;-74
2023/03/09 11:18:31;;;;;;;;;9.33;4.67;;;;;16.15;55.82;99525.63;5051816;28;47805;-75
2023/03/09 11:20:57;;;;;;;;;7.50;6.00;;;;;16.00;56.09;99503.56;5040424;28;45448;-74
2023/03/09 11:23:33;;;;;;;;;4.67;4.00;;;;;15.88;56.28;99481.97;5055815;28;45550;-74
2023/03/09 11:26:17;;;;;;;;;8.00;3.00;;;;;16.49;56.52;99567.44;5041108;28;45606;-76
2023/03/09 11:28:45;;;;;;;;;5.33;3.00;;;;;16.47;56.28;99566.81;5052305;28;45755;-73
2023/03/09 11:31:17;;;;;;;;;6.67;4.33;;;;;16.47;56.00;99564.13;5060292;28;45409;-73
2023/03/09 11:33:45;;;;;;;;;4.33;4.33;;;;;16.13;56.14;99511.59;5051813;28;45588;-74
2023/03/09 11:36:15;;;;;;;;;11.00;5.00;;;;;15.96;56.03;99487.09;5056145;28;45490;-75